Bejelentkezés
MINDENAUTO.HU

MINDEN
AUTÓ

autó

Info

MINDENAUTO.HU

MINDEN AUTÓ - Eladó használt és új gépjárművek, autók

Magyarországi új és használt járművek képes listája, ingyenes autó hirdetési lehetőség. Autó apróhirdetés. Járművek, autók, motorok, tehergépjárművek. Eladó Suzuki, Opel, Fiat, Mercedes, BMW, Audi, Nissan. Új és használtan importált kedvezményes áru autók. Autólízing, hitelnyújtás. Használtautó hu, minden eladó jármű hirdetések, hirdetésfeladás. Járműadatbázis, motor, haszongépjármű, busz, terepjáró és teherautó kínálat is.

Legújabb twittek

EGKR 022050Z AUTO 27005KT 250V310 9999 NCD 09/04 Q1015=

EGKR 021950Z AUTO 28004KT 9999 NCD 10/04 Q1014=

@kafara666 @pandji Auto nyanyi

@ridwanpeot auto folbek kokkk

Brutális számok, ezt tette a vírus a magyarok kedvenc használt autóival https://t.co/J08vyY3ksI

EGKR 021850Z AUTO 28006KT 9999 NCD 11/05 Q1014=

Auto nak tengok https://t.co/2tOtOjBkQZ

@morphine500 A csúnyaság elég relatív. A második C5 sokkal jobb autó, viszont nekem sokkal kevésbé francia.

Mindig bevonz ilyen játékokba a "karrier" ötlete, hogy van benne haladás érzés, de mindig feladom első körnél az ös… https://t.co/RfnRgX8K9q

@fullsunech auto nyanyi😭✊

@keceburrrd @bichieeyaa Auto nyanyi

Cikkünkből kiderül, hogyan függ össze a koronavírus és az üzemanyagárak csökkenése 👉https://t.co/Rc4DtrEWdp https://t.co/BdKQNApnFc

én: ZSENIÁLIS, ahogyan a film csak néhol használja a vörös színt, és ha használja is, akkor is nagyon elüt a környe… https://t.co/hmTfR8GfSr

Nem tudnak megölni, ősszel majdnem sikerült nekik sötét külvárosban, testvérem rám hívta a rendőrt este 10-kor, ves… https://t.co/OxoJAC75am

Vonat és mozgáskorlátozott férfi vezette jármű ütközött össze Hódmezővásárhely közelében https://t.co/MZLJnCawcm https://t.co/ONIwmMidqB

INGYENES ÓZONOS FERTŐTLENÍTÉS!!! Amennyiben nálunk cserélteti le abroncsait, 4db gumicsere mellé díjmentes a jármű… https://t.co/fOh2GFH41c

Keresés

Rólunk

Magyarországi új és használt járművek képes listája, ingyenes autó hirdetési lehetőség. Autó apróhirdetés. Járművek, autók, motorok, tehergépjárművek. Eladó Suzuki, Opel, Fiat, Mercedes, BMW, Audi, Nissan. Új és használtan importált kedvezményes áru autók. Autólízing, hitelnyújtás. Használtautó hu, minden eladó jármű hirdetések, hirdetésfeladás. Járműadatbázis, motor, haszongépjármű, busz, terepjáró és teherautó kínálat is.
Kapcsolat

Hírek

Putyin fertőtlenítőt és szakértőket küld Olaszországba  Napi.hu Villanyoszlopnak ütközött egy autó a Gesztenyés úton  Baranya Ma Életmentő készülék is van a kocsiban  Hajdú Online Lenyűgözően gyönyörű lett az elektromos VW kisbusz  Nuus.hu
Szalagkorlátnak ütközött egy autó az M44-esen Szarvasnál  Körös Hírcentrum Új tier IX-es egyedi svéd nehéz tank - Bemutatjuk az Strv K harckocsit!  Esport1 Ma lenne 60 éves Senna, akire egy elfeledett zsigulis képpel emlékezünk  hvg.hu A McLaren 2021-ben biztosan Mercedes motorokra vált, a 2020-as autók maradása ellenére  Motorsport.com Magyarország Súlyos balesettel ért véget a fiatalok száguldása a Balatonnál  Vezess.hu Szétverték az autóját, így bukott le a hamis rendszámmal  Népszava Minden idők 10 legnagyobb darabszámban értékesített autója  Alapjárat Vett egy autót kéz alatt, és külön szerzett hozzá rendszámot a veszprémi fiatal  Napló Online Karambol és tűz Nagykanizsán  Dél-Zala Press Íme a Bollinger elektromos terepjáróknak készített platformja  Autopro.hu Sok gondot okoztak pénteken a szabadtéri tüzek  Hajdú Online Pótkocsis Suzukis okozott balesetet Kecskeméten  BAON.hu Özönlik a kisvállalatok segélykérése a kamarához  Hír TV Koronavírus – Védőplexit szerel a kasszákhoz az egyik üzletlánc – Szlovákiában 41 új fertőzött van  Kisalföld Egészségügyi szolgálatra ajánlják fel autóikat a nagy spanyol autókereskedők  hvg.hu